Time;durP1;ratioP1;P1;durP2;ratioP2;P2;SDS_P1;SDS_P2;PMS_P1;PMS_P2;Temp;Humidity;BMP_temperature;BMP_pressure;BME280_temperature;BME280_humidity;BME280_pressure;Samples;Min_cycle;Max_cycle;Signal;HPM_P1;HPM_P2
2024/01/29 00:00:04;;;;;;;;;64.67;51.00;;;;;7.65;74.11;102157.31;5057631;28;45428;-61
2024/01/29 00:02:32;;;;;;;;;65.75;50.75;;;;;7.56;73.73;102151.75;5056986;28;45500;-64
2024/01/29 00:04:57;;;;;;;;;63.67;50.00;;;;;7.60;73.27;102174.53;5063677;28;46221;-66
2024/01/29 00:07:23;;;;;;;;;61.25;48.50;;;;;7.53;73.66;102167.31;5057151;28;45438;-60
2024/01/29 00:09:48;;;;;;;;;62.00;50.00;;;;;7.51;73.92;102174.16;5008091;28;1684107;-61
2024/01/29 00:12:14;;;;;;;;;60.75;47.75;;;;;7.45;73.96;102172.22;5067470;28;45456;-62
2024/01/29 00:14:39;;;;;;;;;67.25;50.00;;;;;7.47;74.26;102170.53;5076581;28;45986;-63
2024/01/29 00:17:05;;;;;;;;;69.00;51.50;;;;;7.37;74.44;102171.91;5060245;28;45515;-63
2024/01/29 00:19:30;;;;;;;;;67.75;52.50;;;;;7.34;73.94;102168.31;5068591;28;45483;-63
2024/01/29 00:21:56;;;;;;;;;67.75;52.00;;;;;7.35;74.45;102175.28;5063772;28;45468;-65
2024/01/29 00:24:21;;;;;;;;;66.67;51.00;;;;;7.31;74.33;102166.50;5079547;28;46158;-62
2024/01/29 00:26:47;;;;;;;;;68.50;52.00;;;;;7.32;74.35;102168.25;5062128;28;45537;-60
2024/01/29 00:29:12;;;;;;;;;66.75;51.00;;;;;7.35;74.23;102175.28;5066004;28;45426;-69
2024/01/29 00:31:38;;;;;;;;;65.00;51.00;;;;;7.35;74.09;102177.91;5076594;28;45431;-62
2024/01/29 00:34:03;;;;;;;;;69.00;53.33;;;;;7.30;74.24;102169.03;5039089;28;45592;-62
2024/01/29 00:36:29;;;;;;;;;66.50;52.00;;;;;7.32;74.18;102186.50;5058386;28;45316;-62
2024/01/29 00:38:54;;;;;;;;;69.67;53.67;;;;;7.34;74.20;102191.78;5071834;28;45331;-65
2024/01/29 00:41:20;;;;;;;;;68.50;52.75;;;;;7.28;73.99;102181.97;5078563;28;45785;-67
2024/01/29 00:43:45;;;;;;;;;69.33;52.33;;;;;7.26;74.32;102190.56;5068554;28;45766;-65
2024/01/29 00:46:11;;;;;;;;;67.75;53.00;;;;;7.12;74.51;102180.53;5066139;28;45356;-66
2024/01/29 00:48:37;;;;;;;;;66.00;50.67;;;;;7.10;74.86;102179.56;5078312;28;45325;-69
2024/01/29 00:51:03;;;;;;;;;67.25;50.50;;;;;7.09;74.88;102185.59;5077775;28;46023;-63
2024/01/29 00:53:29;;;;;;;;;63.00;49.33;;;;;7.06;75.14;102167.25;5079201;28;45875;-65
2024/01/29 00:55:55;;;;;;;;;64.67;50.00;;;;;7.02;75.23;102165.34;5079080;28;45464;-68
2024/01/29 00:58:20;;;;;;;;;62.00;49.00;;;;;7.04;74.88;102173.22;5072112;28;45540;-64
2024/01/29 01:00:48;;;;;;;;;69.67;52.33;;;;;7.01;75.12;102179.22;5069731;28;45474;-61
2024/01/29 01:03:13;;;;;;;;;62.50;47.50;;;;;6.98;75.22;102179.97;5058240;28;46782;-64
2024/01/29 01:05:40;;;;;;;;;61.50;49.00;;;;;6.94;75.26;102174.59;5062345;28;45473;-63
2024/01/29 01:08:06;;;;;;;;;61.50;48.25;;;;;6.92;74.92;102163.22;5076325;28;45493;-65
2024/01/29 01:10:32;;;;;;;;;67.00;51.25;;;;;6.98;75.32;102184.31;5062653;28;45724;-63
2024/01/29 01:12:57;;;;;;;;;66.25;51.00;;;;;7.03;75.00;102179.28;5063283;28;45421;-63
2024/01/29 01:15:23;;;;;;;;;75.00;58.00;;;;;6.93;75.00;102158.06;5078490;28;45441;-63
2024/01/29 01:17:49;;;;;;;;;63.25;50.25;;;;;6.93;74.77;102160.69;5065825;28;45152;-63
2024/01/29 01:20:14;;;;;;;;;64.75;50.50;;;;;7.03;74.96;102177.56;5077438;28;45522;-61
2024/01/29 01:22:40;;;;;;;;;66.00;51.25;;;;;7.05;74.85;102175.91;5058805;28;46077;-61
2024/01/29 01:25:07;;;;;;;;;65.33;51.00;;;;;6.97;74.95;102166.88;5071145;28;45773;-62
2024/01/29 01:27:33;;;;;;;;;66.67;51.67;;;;;6.98;75.03;102172.16;5060084;28;45568;-61
2024/01/29 01:29:59;;;;;;;;;67.00;51.00;;;;;6.94;75.03;102175.47;5071549;28;45658;-63
2024/01/29 01:32:25;;;;;;;;;64.25;48.50;;;;;7.01;74.84;102177.47;5076873;28;45536;-64
2024/01/29 01:34:50;;;;;;;;;66.33;47.00;;;;;7.03;74.95;102174.94;5060560;28;45484;-60
2024/01/29 01:37:16;;;;;;;;;64.25;49.75;;;;;6.99;74.85;102165.22;5071920;28;45485;-62
2024/01/29 01:39:42;;;;;;;;;65.67;51.00;;;;;7.07;74.80;102171.66;5059770;28;45393;-63
2024/01/29 01:42:08;;;;;;;;;65.00;49.50;;;;;7.08;74.70;102191.66;5058907;28;46390;-68
2024/01/29 01:44:34;;;;;;;;;70.25;54.75;;;;;7.08;74.83;102189.03;5059145;28;45880;-60
2024/01/29 01:46:59;;;;;;;;;65.50;51.25;;;;;7.05;74.57;102188.94;5071521;28;45271;-67
2024/01/29 01:49:26;;;;;;;;;67.33;52.67;;;;;7.06;75.00;102192.41;5068373;28;45445;-68
2024/01/29 01:51:52;;;;;;;;;64.33;50.00;;;;;6.98;74.60;102184.31;5070177;28;45476;-70
2024/01/29 01:54:18;;;;;;;;;67.33;50.67;;;;;6.98;75.04;102189.50;5076695;28;45727;-67
2024/01/29 01:56:45;;;;;;;;;66.00;50.75;;;;;7.03;75.38;102193.19;5075670;28;45472;-65
2024/01/29 01:59:11;;;;;;;;;60.00;46.50;;;;;6.98;74.85;102174.75;5061095;28;45478;-62
2024/01/29 02:01:38;;;;;;;;;64.00;50.00;;;;;6.99;74.61;102179.13;5057953;28;46254;-60
2024/01/29 02:04:04;;;;;;;;;64.25;48.50;;;;;7.06;74.17;102190.69;5058360;28;45386;-62
2024/01/29 02:06:29;;;;;;;;;62.50;49.25;;;;;7.10;74.70;102191.72;5066343;28;45990;-62
2024/01/29 02:08:55;;;;;;;;;59.25;46.75;;;;;7.10;74.11;102192.59;5057300;28;45276;-66
2024/01/29 02:11:21;;;;;;;;;61.00;48.00;;;;;7.07;74.35;102181.16;5077233;28;45574;-61
2024/01/29 02:13:47;;;;;;;;;58.00;45.50;;;;;7.04;74.51;102173.22;5058587;28;45966;-61
2024/01/29 02:16:12;;;;;;;;;63.25;47.75;;;;;7.07;74.11;102174.25;5073678;28;45416;-60
2024/01/29 02:18:38;;;;;;;;;65.25;49.50;;;;;7.06;74.36;102180.28;5057362;28;45518;-69
2024/01/29 02:21:04;;;;;;;;;61.67;48.00;;;;;7.15;74.10;102196.28;5075233;28;45502;-62
2024/01/29 02:23:29;;;;;;;;;65.50;50.25;;;;;7.15;73.86;102198.88;5067830;28;45598;-65
2024/01/29 02:25:55;;;;;;;;;63.00;50.33;;;;;7.12;74.04;102197.84;5077920;28;45416;-66
2024/01/29 02:28:23;;;;;;;;;56.00;43.50;;;;;7.08;74.44;102201.19;5074547;28;45495;-65
2024/01/29 02:30:49;;;;;;;;;59.25;48.00;;;;;7.07;73.98;102208.13;5064578;28;45299;-67
2024/01/29 02:33:15;;;;;;;;;64.33;49.00;;;;;7.01;73.98;102187.03;5075563;28;45963;-64
2024/01/29 02:35:41;;;;;;;;;64.75;50.25;;;;;7.16;73.95;102210.19;5067526;28;45595;-66
2024/01/29 02:38:07;;;;;;;;;61.75;48.00;;;;;7.11;73.87;102199.56;5069984;28;45583;-63
2024/01/29 02:40:33;;;;;;;;;57.25;46.50;;;;;7.07;73.89;102182.06;5068377;28;46346;-70
2024/01/29 02:43:04;;;;;;;;;60.00;46.00;;;;;7.21;74.02;102206.94;5070307;28;45563;-61
2024/01/29 02:45:29;;;;;;;;;60.75;47.25;;;;;7.02;74.04;102167.94;5071733;28;45473;-66
2024/01/29 02:47:55;;;;;;;;;62.75;47.25;;;;;7.22;73.92;102203.50;5070582;28;45469;-64
2024/01/29 02:50:22;;;;;;;;;62.50;46.00;;;;;7.14;73.80;102183.16;5056925;28;45683;-66
2024/01/29 02:52:52;;;;;;;;;61.50;48.75;;;;;7.23;73.92;102205.25;5061618;28;45437;-63
2024/01/29 02:55:18;;;;;;;;;58.00;44.00;;;;;6.99;73.70;102153.09;5065749;28;45295;-60
2024/01/29 02:57:44;;;;;;;;;60.00;45.00;;;;;7.28;73.83;102196.75;5056356;28;45472;-66
2024/01/29 03:00:10;;;;;;;;;61.50;48.00;;;;;7.25;74.07;102191.41;5051077;28;45578;-65
2024/01/29 03:02:36;;;;;;;;;59.25;46.25;;;;;7.26;74.09;102187.97;5047072;28;45537;-69
2024/01/29 03:05:02;;;;;;;;;58.25;44.75;;;;;7.21;74.44;102188.72;5065729;28;45387;-62
2024/01/29 03:07:28;;;;;;;;;54.25;43.75;;;;;7.21;74.34;102190.41;5045663;28;45382;-67
2024/01/29 03:09:53;;;;;;;;;56.25;44.00;;;;;7.21;74.60;102193.00;5058197;28;46115;-64
2024/01/29 03:12:19;;;;;;;;;55.50;45.50;;;;;7.21;74.63;102196.53;5075890;28;45467;-63
2024/01/29 03:14:44;;;;;;;;;57.25;44.00;;;;;7.22;74.64;102190.47;5064916;28;45496;-63
2024/01/29 03:17:10;;;;;;;;;56.50;45.00;;;;;7.27;74.52;102194.97;5075495;28;45492;-64
2024/01/29 03:19:36;;;;;;;;;57.50;44.00;;;;;7.24;74.84;102198.34;5063007;28;45521;-63
2024/01/29 03:22:02;;;;;;;;;52.50;40.75;;;;;7.20;75.38;102196.44;5059625;28;45303;-62
2024/01/29 03:24:27;;;;;;;;;54.75;45.00;;;;;7.14;75.07;102207.53;5075742;28;45401;-61
2024/01/29 03:26:53;;;;;;;;;50.75;40.50;;;;;7.13;75.55;102204.84;5076170;28;46095;-61
2024/01/29 03:29:18;;;;;;;;;53.00;42.75;;;;;7.10;75.75;102199.53;5077096;28;46129;-63
2024/01/29 03:31:44;;;;;;;;;51.25;39.25;;;;;7.12;75.91;102203.97;5077182;28;45330;-60
2024/01/29 03:34:09;;;;;;;;;47.50;37.25;;;;;7.08;76.11;102201.19;5048000;28;45272;-62
2024/01/29 03:36:38;;;;;;;;;49.50;40.75;;;;;7.12;75.66;102203.97;5079989;28;45309;-62
2024/01/29 03:39:04;;;;;;;;;49.25;39.00;;;;;7.15;75.96;102198.00;5078689;28;46665;-66
2024/01/29 03:41:29;;;;;;;;;50.75;41.00;;;;;7.22;75.90;102202.63;5078939;28;45334;-63
2024/01/29 03:44:05;;;;;;;;;51.50;39.75;;;;;7.25;75.94;102209.66;5078833;28;45743;-62
2024/01/29 03:46:31;;;;;;;;;45.75;39.25;;;;;7.13;75.68;102184.00;5079475;28;45472;-64
2024/01/29 03:48:57;;;;;;;;;52.00;41.25;;;;;7.15;75.83;102198.88;5079232;28;46039;-63
2024/01/29 03:51:22;;;;;;;;;50.00;38.25;;;;;7.07;76.22;102192.50;5079012;28;45430;-64
2024/01/29 03:53:48;;;;;;;;;51.00;38.75;;;;;7.10;75.81;102196.94;5079428;28;45491;-67
2024/01/29 03:56:15;;;;;;;;;50.50;36.75;;;;;7.06;75.83;102195.91;5078909;28;45230;-64
2024/01/29 03:58:41;;;;;;;;;48.50;40.75;;;;;7.04;76.08;102194.94;5079135;28;45335;-64
2024/01/29 04:01:06;;;;;;;;;43.75;36.00;;;;;7.01;76.32;102194.84;5046388;28;45675;-67
2024/01/29 04:03:32;;;;;;;;;49.25;37.75;;;;;7.02;76.50;102196.59;5079379;28;45393;-66
2024/01/29 04:05:57;;;;;;;;;50.25;39.50;;;;;7.01;75.91;102187.91;5072597;28;45246;-66
2024/01/29 04:08:23;;;;;;;;;50.25;40.50;;;;;7.05;76.28;102194.13;5072911;28;46110;-68
2024/01/29 04:10:48;;;;;;;;;50.00;41.75;;;;;7.03;75.44;102198.41;5078355;28;45451;-63
2024/01/29 04:13:14;;;;;;;;;45.75;37.75;;;;;6.96;76.05;102205.06;5064032;28;45468;-61
2024/01/29 04:15:39;;;;;;;;;47.75;37.75;;;;;6.91;76.58;102192.69;5078318;28;45496;-63
2024/01/29 04:18:05;;;;;;;;;55.00;40.25;;;;;6.98;76.06;102194.72;5076955;28;45565;-63
2024/01/29 04:20:30;;;;;;;;;51.75;40.00;;;;;6.89;76.58;102187.41;5067724;28;45433;-61
2024/01/29 04:22:56;;;;;;;;;48.00;38.75;;;;;6.89;76.98;102194.34;5076515;28;45416;-61
2024/01/29 04:25:22;;;;;;;;;38.75;36.50;;;;;6.86;77.13;102192.50;5068087;28;45402;-61
2024/01/29 04:27:51;;;;;;;;;47.00;35.00;;;;;6.84;77.09;102206.31;5074929;28;46641;-60
2024/01/29 04:30:17;;;;;;;;;49.50;35.75;;;;;6.70;77.04;102172.75;5063889;28;45480;-62
2024/01/29 04:32:43;;;;;;;;;45.00;37.50;;;;;6.84;77.82;102201.09;5078345;28;45527;-63
2024/01/29 04:35:08;;;;;;;;;45.00;37.50;;;;;6.82;77.48;102205.34;5078929;28;45515;-61
2024/01/29 04:37:34;;;;;;;;;47.25;39.25;;;;;6.71;77.01;102182.34;5079453;28;45471;-62
2024/01/29 04:40:00;;;;;;;;;49.75;37.00;;;;;6.80;77.52;102200.06;5069985;28;45524;-62
2024/01/29 04:42:25;;;;;;;;;48.50;37.00;;;;;6.83;77.48;102192.38;5071466;28;45490;-65
2024/01/29 04:44:51;;;;;;;;;48.75;38.75;;;;;6.74;77.32;102185.09;5077200;28;45530;-68
2024/01/29 04:47:16;;;;;;;;;46.75;38.25;;;;;6.73;78.04;102188.50;5077928;28;45800;-66
2024/01/29 04:49:42;;;;;;;;;40.50;33.00;;;;;6.73;78.19;102200.63;5078013;28;45362;-67
2024/01/29 04:52:07;;;;;;;;;32.50;30.25;;;;;6.80;77.95;102200.94;5063086;28;45239;-68
2024/01/29 04:54:33;;;;;;;;;36.75;33.00;;;;;6.90;77.63;102211.75;5077956;28;45389;-68
2024/01/29 04:56:59;;;;;;;;;47.25;37.00;;;;;6.85;77.84;102208.94;5077653;28;45476;-67
2024/01/29 04:59:24;;;;;;;;;52.00;38.50;;;;;6.85;77.48;102198.53;5078170;28;45301;-65
2024/01/29 05:01:50;;;;;;;;;25.75;22.00;;;;;6.69;78.11;102185.72;5063597;28;45709;-67
2024/01/29 05:04:15;;;;;;;;;40.50;32.00;;;;;6.88;77.89;102210.78;5078150;28;45559;-63
2024/01/29 05:06:41;;;;;;;;;32.25;29.75;;;;;6.95;78.09;102208.50;5072150;28;45839;-66
2024/01/29 05:09:09;;;;;;;;;40.50;34.50;;;;;6.93;77.76;102196.25;5059388;28;45477;-68
2024/01/29 05:11:37;;;;;;;;;30.50;28.50;;;;;7.02;77.68;102204.41;5077530;28;45317;-65
2024/01/29 05:14:03;;;;;;;;;34.50;29.25;;;;;7.11;77.24;102204.78;5077797;28;45412;-65
2024/01/29 05:16:29;;;;;;;;;36.50;30.00;;;;;7.14;77.13;102201.41;5073358;28;46689;-69
2024/01/29 05:18:55;;;;;;;;;39.50;29.75;;;;;7.17;76.89;102202.44;5070851;28;45574;-65
2024/01/29 05:21:20;;;;;;;;;36.75;31.50;;;;;7.30;76.83;102213.34;5068227;28;45471;-68
2024/01/29 05:23:46;;;;;;;;;33.75;29.75;;;;;7.19;76.88;102189.47;5060994;28;45276;-69
2024/01/29 05:26:12;;;;;;;;;40.00;33.00;;;;;7.24;76.93;102200.97;5067976;28;46282;-68
2024/01/29 05:28:37;;;;;;;;;36.50;30.25;;;;;7.32;77.05;102209.97;5064399;28;45428;-61
2024/01/29 05:31:03;;;;;;;;;38.50;32.25;;;;;7.29;76.72;102195.94;5063008;28;45395;-66
2024/01/29 05:33:28;;;;;;;;;37.25;29.25;;;;;7.34;76.44;102200.47;5063357;28;45445;-71
2024/01/29 05:35:55;;;;;;;;;34.50;30.75;;;;;7.47;76.37;102209.66;5071624;28;45900;-66
2024/01/29 05:38:20;;;;;;;;;31.50;29.75;;;;;7.47;76.50;102216.59;5063459;28;45537;-67
2024/01/29 05:40:46;;;;;;;;;37.25;32.75;;;;;7.48;76.09;102211.44;5071726;28;45388;-66
2024/01/29 05:43:12;;;;;;;;;38.25;33.00;;;;;7.41;76.35;102204.22;5060376;28;45488;-69
2024/01/29 05:45:38;;;;;;;;;41.75;35.00;;;;;7.38;76.52;102211.91;5072117;28;45584;-67
2024/01/29 05:48:07;;;;;;;;;39.50;33.00;;;;;7.32;76.54;102214.28;5060238;28;45492;-63
2024/01/29 05:50:32;;;;;;;;;39.50;32.50;;;;;7.32;76.85;102216.91;5060223;28;45389;-62
2024/01/29 05:52:58;;;;;;;;;37.50;31.75;;;;;7.31;76.84;102228.13;5076246;28;45490;-62
2024/01/29 05:55:24;;;;;;;;;27.75;22.25;;;;;7.29;76.99;102227.22;5069336;28;46125;-63
2024/01/29 05:57:50;;;;;;;;;36.00;31.50;;;;;7.20;77.47;102232.94;5077114;28;45433;-66
2024/01/29 06:00:16;;;;;;;;;37.25;31.50;;;;;7.19;77.15;102228.56;5067265;28;45361;-65
2024/01/29 06:02:46;;;;;;;;;32.50;30.50;;;;;7.16;77.48;102226.69;5065094;28;45345;-64
2024/01/29 06:05:12;;;;;;;;;33.75;30.75;;;;;7.16;77.36;102231.03;5077316;28;45457;-68
2024/01/29 06:07:39;;;;;;;;;32.00;23.50;;;;;7.11;77.22;102225.63;5078235;28;45472;-64
2024/01/29 06:10:05;;;;;;;;;37.50;33.25;;;;;7.13;77.10;102221.38;5069005;28;45386;-66
2024/01/29 06:12:31;;;;;;;;;36.75;31.50;;;;;7.21;77.02;102238.22;5071280;28;45419;-66
2024/01/29 06:14:57;;;;;;;;;38.00;31.00;;;;;7.15;77.20;102237.97;5066161;28;45469;-64
2024/01/29 06:17:22;;;;;;;;;35.25;30.25;;;;;7.10;77.36;102252.53;5061979;28;45502;-64
2024/01/29 06:19:48;;;;;;;;;42.00;31.50;;;;;7.14;77.54;102249.22;5070936;28;45370;-65
2024/01/29 06:22:14;;;;;;;;;44.50;34.00;;;;;7.14;77.43;102248.31;5050450;28;45234;-60
2024/01/29 06:24:39;;;;;;;;;42.25;34.25;;;;;7.15;77.24;102256.19;5075197;28;45946;-65
2024/01/29 06:27:05;;;;;;;;;33.50;30.00;;;;;7.03;77.63;102253.09;5062579;28;45507;-66
2024/01/29 06:29:30;;;;;;;;;39.50;36.25;;;;;7.03;77.49;102258.31;5048472;28;45371;-64
2024/01/29 06:31:56;;;;;;;;;37.25;33.00;;;;;7.03;77.80;102263.53;5061814;28;45383;-64
2024/01/29 06:34:23;;;;;;;;;46.00;36.50;;;;;6.98;77.91;102263.34;5074132;28;45890;-69
2024/01/29 06:36:52;;;;;;;;;32.00;31.25;;;;;6.95;77.79;102265.81;5064764;28;45295;-67
2024/01/29 06:39:18;;;;;;;;;40.00;32.75;;;;;6.94;78.17;102271.84;5045682;28;45298;-67
2024/01/29 06:41:43;;;;;;;;;38.75;33.00;;;;;6.84;78.21;102253.19;5077504;28;45463;-66
2024/01/29 06:44:09;;;;;;;;;42.50;35.00;;;;;6.89;78.03;102275.09;5074947;28;45869;-68
2024/01/29 06:46:34;;;;;;;;;36.50;32.25;;;;;6.88;78.14;102276.81;5064312;28;46002;-67
2024/01/29 06:49:00;;;;;;;;;48.25;34.00;;;;;6.85;78.13;102274.06;5075735;28;45412;-67
2024/01/29 06:51:26;;;;;;;;;53.00;38.75;;;;;6.77;78.30;102254.63;5073896;28;45425;-62
2024/01/29 06:53:51;;;;;;;;;41.75;34.50;;;;;6.80;78.37;102296.41;5046847;28;48773;-66
2024/01/29 06:56:17;;;;;;;;;44.50;39.00;;;;;6.70;78.40;102274.31;5075916;28;45523;-65
2024/01/29 06:58:43;;;;;;;;;53.00;40.75;;;;;6.70;78.71;102284.72;5062694;28;45458;-64
2024/01/29 07:01:09;;;;;;;;;53.00;38.50;;;;;6.58;79.15;102286.81;5066419;28;45474;-66
2024/01/29 07:03:34;;;;;;;;;51.75;42.50;;;;;6.57;79.33;102292.81;5070653;28;45448;-62
2024/01/29 07:06:00;;;;;;;;;45.50;39.25;;;;;6.55;79.55;102300.59;5062411;28;45411;-63
2024/01/29 07:08:25;;;;;;;;;49.50;38.25;;;;;6.59;79.51;102299.00;5078815;28;45445;-65
2024/01/29 07:10:51;;;;;;;;;57.00;42.50;;;;;6.53;79.46;102288.34;5047121;28;45417;-71
2024/01/29 07:13:17;;;;;;;;;52.75;42.25;;;;;6.51;79.40;102289.97;5072192;28;45450;-62
2024/01/29 07:15:42;;;;;;;;;52.50;39.00;;;;;6.56;79.49;102301.47;5078433;28;45207;-63
2024/01/29 07:18:08;;;;;;;;;48.25;38.75;;;;;6.61;79.39;102296.47;5060115;28;45395;-66
2024/01/29 07:20:45;;;;;;;;;42.00;37.25;;;;;6.59;79.30;102299.88;5080067;28;45522;-61
2024/01/29 07:23:10;;;;;;;;;50.75;38.75;;;;;6.68;79.52;102304.59;5046735;28;47622;-68
2024/01/29 07:25:40;;;;;;;;;47.00;37.75;;;;;6.73;79.39;102303.06;5079646;28;45371;-61
2024/01/29 07:28:05;;;;;;;;;46.50;34.50;;;;;6.78;79.15;102313.69;5060829;28;45344;-62
2024/01/29 07:30:32;;;;;;;;;44.50;37.25;;;;;6.74;79.01;102302.28;5047611;28;45321;-61
2024/01/29 07:32:58;;;;;;;;;43.00;33.50;;;;;6.85;78.66;102318.34;5066992;28;45407;-66
2024/01/29 07:35:24;;;;;;;;;44.75;37.00;;;;;6.87;78.83;102318.41;5047451;28;45414;-68
2024/01/29 07:37:50;;;;;;;;;44.25;37.00;;;;;6.87;78.69;102323.63;5078809;28;45472;-63
2024/01/29 07:40:20;;;;;;;;;43.25;33.00;;;;;6.98;78.42;102328.47;5077307;28;45401;-62
2024/01/29 07:42:47;;;;;;;;;42.50;34.25;;;;;7.01;78.12;102323.38;5066834;28;46377;-64
2024/01/29 07:45:13;;;;;;;;;43.00;35.50;;;;;7.00;78.17;102333.75;5062468;28;45445;-65
2024/01/29 07:47:44;;;;;;;;;41.25;34.50;;;;;6.95;78.57;102330.03;5061972;28;45457;-68
2024/01/29 07:50:11;;;;;;;;;45.75;36.50;;;;;6.93;78.31;102321.28;5061130;28;45373;-66
2024/01/29 07:52:36;;;;;;;;;46.00;38.25;;;;;6.88;78.49;102317.56;5079481;28;45480;-63
2024/01/29 07:55:02;;;;;;;;;37.50;33.50;;;;;7.04;78.13;102335.63;5071152;28;45469;-66
2024/01/29 07:57:27;;;;;;;;;44.25;37.00;;;;;7.13;77.74;102329.94;5054148;28;45358;-64
2024/01/29 07:59:53;;;;;;;;;43.00;34.25;;;;;7.10;77.61;102312.44;5078627;28;45502;-67
2024/01/29 08:02:19;;;;;;;;;47.50;35.50;;;;;7.23;77.29;102319.03;5060295;28;46165;-71
2024/01/29 08:04:44;;;;;;;;;37.25;34.00;;;;;7.33;76.98;102334.25;5074407;28;45271;-64
2024/01/29 08:07:10;;;;;;;;;43.50;33.00;;;;;7.32;77.10;102328.97;5070303;28;45434;-70
2024/01/29 08:09:35;;;;;;;;;39.00;33.50;;;;;7.36;76.92;102339.59;5066811;28;45239;-69
2024/01/29 08:12:01;;;;;;;;;47.00;34.75;;;;;7.42;77.03;102336.31;5080121;28;45518;-69
2024/01/29 08:14:27;;;;;;;;;40.00;30.00;;;;;7.35;77.11;102326.47;5078715;28;45811;-67
2024/01/29 08:16:52;;;;;;;;;38.75;32.75;;;;;7.29;76.92;102303.66;5076886;28;45459;-70
2024/01/29 08:19:18;;;;;;;;;42.25;35.50;;;;;7.46;76.77;102320.00;5078425;28;45298;-69
2024/01/29 08:21:44;;;;;;;;;35.50;32.50;;;;;7.60;76.14;102329.25;5054435;28;45504;-70
2024/01/29 08:24:09;;;;;;;;;44.00;35.75;;;;;7.67;76.20;102325.16;5051254;28;45976;-63
2024/01/29 08:26:35;;;;;;;;;43.25;35.25;;;;;7.93;75.60;102327.91;5075410;28;45584;-61
2024/01/29 08:29:01;;;;;;;;;44.00;35.00;;;;;8.28;74.13;102324.91;5069079;28;45452;-63
2024/01/29 08:31:32;;;;;;;;;39.50;34.00;;;;;8.63;73.27;102319.19;5075366;28;45440;-69
2024/01/29 08:33:57;;;;;;;;;47.00;37.50;;;;;9.24;72.03;102318.66;5060500;28;45666;-60
2024/01/29 08:36:23;;;;;;;;;37.25;33.75;;;;;9.63;69.81;102320.75;5062118;28;45647;-65
2024/01/29 08:38:49;;;;;;;;;42.75;33.00;;;;;9.84;69.04;102332.75;5075327;28;45664;-63
2024/01/29 08:41:26;;;;;;;;;50.25;37.00;;;;;9.90;68.12;102325.09;5045947;28;45652;-64
2024/01/29 08:43:52;;;;;;;;;37.25;32.25;;;;;9.94;68.32;102324.31;5077705;28;45498;-70
2024/01/29 08:46:18;;;;;;;;;41.25;33.25;;;;;9.82;67.61;102310.88;5064612;28;45374;-61
2024/01/29 08:48:43;;;;;;;;;49.25;36.00;;;;;10.32;67.41;102340.28;5057911;28;45310;-64
2024/01/29 08:51:09;;;;;;;;;45.75;36.00;;;;;10.44;66.66;102334.50;5057519;28;46169;-62
2024/01/29 08:53:36;;;;;;;;;44.00;35.25;;;;;10.45;65.40;102320.59;5058645;28;45310;-65
2024/01/29 08:56:05;;;;;;;;;44.00;34.75;;;;;10.66;65.25;102333.41;5057955;28;45432;-63
2024/01/29 08:58:30;;;;;;;;;38.75;34.50;;;;;11.21;64.11;102332.22;5057517;28;45435;-66
2024/01/29 09:00:56;;;;;;;;;35.00;30.75;;;;;11.99;62.26;102320.94;5039724;28;46097;-64
2024/01/29 09:03:24;;;;;;;;;37.75;35.00;;;;;12.87;58.52;102328.78;5036743;28;46698;-66
2024/01/29 09:05:49;;;;;;;;;41.75;34.50;;;;;13.33;57.19;102318.19;5034326;28;45729;-69
2024/01/29 09:08:15;;;;;;;;;40.25;34.25;;;;;13.96;55.96;102316.47;5039235;28;45440;-62
2024/01/29 09:10:41;;;;;;;;;42.00;33.00;;;;;14.66;54.03;102320.84;5041001;28;46099;-68
2024/01/29 09:13:07;;;;;;;;;34.00;28.75;;;;;15.27;52.41;102314.34;5046128;28;45602;-68
2024/01/29 09:15:32;;;;;;;;;37.00;33.00;;;;;15.86;51.29;102320.06;5067999;28;45491;-66
2024/01/29 09:17:58;;;;;;;;;38.75;34.25;;;;;16.15;49.54;102311.38;5060350;28;45463;-67
2024/01/29 09:20:27;;;;;;;;;42.25;35.00;;;;;16.46;49.03;102302.66;5057557;28;46102;-72
2024/01/29 09:22:53;;;;;;;;;38.75;32.50;;;;;17.18;48.05;102309.84;5060221;28;45437;-63
2024/01/29 09:25:19;;;;;;;;;38.75;34.50;;;;;16.97;48.27;102309.84;5056437;28;45378;-66
2024/01/29 09:27:45;;;;;;;;;36.75;33.00;;;;;16.31;47.79;102313.22;5054222;28;45414;-63
2024/01/29 09:30:10;;;;;;;;;40.00;35.50;;;;;15.69;49.60;102307.59;5037445;28;47637;-70
2024/01/29 09:32:36;;;;;;;;;43.75;35.00;;;;;15.34;50.23;102324.97;5072106;28;45428;-67
2024/01/29 09:35:01;;;;;;;;;39.50;31.00;;;;;15.03;50.59;102328.22;5075780;28;45353;-63
2024/01/29 09:37:27;;;;;;;;;44.50;33.75;;;;;14.63;51.81;102329.59;5072767;28;45453;-71
2024/01/29 09:39:53;;;;;;;;;50.25;35.50;;;;;14.05;52.92;102337.69;5060339;28;46071;-70
2024/01/29 09:42:24;;;;;;;;;39.25;32.25;;;;;13.55;54.07;102335.22;5058345;28;45473;-67
2024/01/29 09:44:54;;;;;;;;;42.25;34.25;;;;;13.24;55.40;102344.31;5059342;28;45160;-66
2024/01/29 09:47:20;;;;;;;;;42.25;34.75;;;;;12.79;55.94;102337.38;5077347;28;46102;-61
2024/01/29 09:49:46;;;;;;;;;32.75;32.25;;;;;12.40;57.28;102335.78;5062728;28;46107;-66
2024/01/29 09:52:13;;;;;;;;;42.50;35.50;;;;;12.18;57.71;102343.22;5060804;28;45335;-67
2024/01/29 09:54:41;;;;;;;;;41.00;31.75;;;;;12.02;59.09;102347.25;5077092;28;45695;-64
2024/01/29 09:57:12;;;;;;;;;41.75;35.00;;;;;11.78;59.97;102346.69;5059503;28;45518;-67
2024/01/29 09:59:41;;;;;;;;;44.00;33.75;;;;;11.62;60.19;102355.94;5075435;28;46600;-68
2024/01/29 10:02:08;;;;;;;;;45.25;36.50;;;;;11.43;61.39;102354.59;5055115;28;45234;-64
2024/01/29 10:04:35;;;;;;;;;43.75;34.50;;;;;11.60;61.17;102355.91;5057120;28;45392;-65
2024/01/29 10:07:01;;;;;;;;;48.00;37.75;;;;;11.59;60.93;102356.75;5060623;28;45310;-65
2024/01/29 10:09:28;;;;;;;;;40.25;35.75;;;;;11.63;61.37;102355.97;5054390;28;46225;-63
2024/01/29 10:11:54;;;;;;;;;41.50;36.25;;;;;11.61;61.33;102352.41;5068804;28;45444;-66
2024/01/29 10:14:20;;;;;;;;;49.00;34.50;;;;;11.71;61.18;102356.13;5056952;28;45451;-65
2024/01/29 10:16:48;;;;;;;;;43.25;35.25;;;;;11.70;60.95;102351.75;5061146;28;45357;-65
2024/01/29 10:19:14;;;;;;;;;43.50;36.00;;;;;11.73;61.27;102350.94;5048839;28;45520;-62
2024/01/29 10:21:43;;;;;;;;;52.50;39.25;;;;;12.03;60.84;102350.75;5076902;28;45602;-61
2024/01/29 10:24:17;;;;;;;;;51.50;37.75;;;;;12.55;59.51;102343.06;5058704;28;45458;-60
2024/01/29 10:26:44;;;;;;;;;48.50;35.75;;;;;13.39;57.56;102346.38;5045946;28;45840;-64
2024/01/29 10:29:11;;;;;;;;;49.00;37.00;;;;;14.27;55.88;102345.84;5071691;28;46216;-68
2024/01/29 10:31:37;;;;;;;;;43.00;35.25;;;;;15.23;53.17;102341.63;5062540;28;45393;-66
2024/01/29 10:34:04;;;;;;;;;43.25;35.00;;;;;16.09;50.98;102318.41;5058016;28;45728;-62
2024/01/29 10:36:30;;;;;;;;;41.50;34.25;;;;;17.04;48.00;102317.78;5046220;28;45372;-62
2024/01/29 10:38:57;;;;;;;;;36.50;33.00;;;;;18.01;46.96;102329.16;5072073;28;47962;-64
2024/01/29 10:41:25;;;;;;;;;41.50;32.50;;;;;18.78;44.22;102314.63;5066985;28;45437;-63
2024/01/29 10:43:52;;;;;;;;;40.00;32.00;;;;;19.52;42.98;102317.53;5061788;28;45469;-65
2024/01/29 10:46:22;;;;;;;;;31.50;21.25;;;;;20.30;41.00;102306.00;5065571;28;45436;-65
2024/01/29 10:48:50;;;;;;;;;46.00;34.25;;;;;20.73;40.38;102310.72;5064825;28;45365;-63
2024/01/29 10:51:16;;;;;;;;;43.25;32.50;;;;;20.77;40.11;102300.06;5065833;28;45554;-66
2024/01/29 10:53:43;;;;;;;;;29.75;25.75;;;;;21.31;39.51;102318.69;5080160;28;45283;-62
2024/01/29 10:56:10;;;;;;;;;36.50;31.50;;;;;21.88;38.95;102305.19;5079757;28;45484;-68
2024/01/29 10:58:37;;;;;;;;;38.00;32.67;;;;;22.95;37.10;102301.91;5048708;28;46797;-66
2024/01/29 11:01:05;;;;;;;;;39.33;33.67;;;;;23.16;36.16;102284.50;5078180;28;45532;-65
2024/01/29 11:03:31;;;;;;;;;40.00;35.00;;;;;23.92;35.14;102292.22;5076063;28;45545;-62
2024/01/29 11:06:13;;;;;;;;;33.00;30.67;;;;;24.69;35.16;102297.03;5023900;28;45414;-62
2024/01/29 11:08:42;;;;;;;;;21.00;21.00;;;;;25.36;32.84;102292.09;5037862;28;46280;-64